Time;durP1;ratioP1;P1;durP2;ratioP2;P2;SDS_P1;SDS_P2;PMS_P1;PMS_P2;Temp;Humidity;BMP_temperature;BMP_pressure;BME280_temperature;BME280_humidity;BME280_pressure;Samples;Min_cycle;Max_cycle;Signal;HPM_P1;HPM_P2
2023/12/23 00:03:18;;;;;;;2.70;2.60;;;;;;;1.50;74.94;97915.38;7744353;32;38710;-78
2023/12/23 00:07:35;;;;;;;2.60;2.50;;;;;;;1.64;75.02;97906.88;7723607;32;37000;-78
2023/12/23 00:11:52;;;;;;;2.50;2.40;;;;;;;1.43;76.04;97885.28;7721785;32;40246;-78
2023/12/23 00:16:08;;;;;;;2.50;2.40;;;;;;;1.63;74.62;97870.34;7742872;32;39905;-78
2023/12/23 00:20:25;;;;;;;2.50;2.40;;;;;;;1.51;75.38;97875.91;7744398;32;37584;-78
2023/12/23 00:24:41;;;;;;;2.60;2.50;;;;;;;1.60;75.04;97878.91;7724466;32;37046;-78
2023/12/23 00:28:57;;;;;;;2.33;2.22;;;;;;;1.54;75.68;97856.59;7717716;32;39252;-77
2023/12/23 00:33:13;;;;;;;2.60;2.45;;;;;;;1.57;75.00;97836.44;7726736;32;40030;-78
2023/12/23 00:37:30;;;;;;;2.50;2.40;;;;;;;1.83;73.51;97829.34;7725519;32;37816;-78
2023/12/23 00:41:46;;;;;;;2.65;2.45;;;;;;;1.59;75.11;97823.59;7691430;32;37869;-79
2023/12/23 00:46:02;;;;;;;2.40;2.30;;;;;;;2.19;72.85;97841.00;7712565;32;39323;-78
2023/12/23 00:50:19;;;;;;;2.40;2.30;;;;;;;2.57;71.32;97848.88;7718315;32;40558;-78
2023/12/23 00:54:35;;;;;;;2.30;2.20;;;;;;;2.53;71.01;97843.22;7717982;32;37794;-78
2023/12/23 00:58:51;;;;;;;2.50;2.40;;;;;;;1.84;72.73;97847.84;7717831;32;37020;-78
2023/12/23 01:03:07;;;;;;;2.40;2.30;;;;;;;2.53;71.01;97858.56;7711920;32;39631;-78
2023/12/23 01:07:24;;;;;;;2.50;2.40;;;;;;;2.55;70.69;97841.09;7731003;32;40059;-77
2023/12/23 01:11:40;;;;;;;2.25;2.15;;;;;;;2.62;70.14;97889.22;7730134;32;37702;-78
2023/12/23 01:15:56;;;;;;;2.30;2.20;;;;;;;2.49;70.00;97905.91;7735577;32;37845;-78
2023/12/23 01:20:12;;;;;;;2.40;2.30;;;;;;;2.33;70.71;97886.19;7728912;32;40041;-78
2023/12/23 01:24:30;;;;;;;2.40;2.30;;;;;;;2.17;71.09;97886.16;7722742;32;40126;-78
2023/12/23 01:28:46;;;;;;;2.47;2.30;;;;;;;2.09;72.09;97896.59;7721247;32;37759;-78
2023/12/23 01:33:03;;;;;;;2.50;2.40;;;;;;;1.71;73.58;97922.75;7718133;32;37808;-78
2023/12/23 01:37:19;;;;;;;2.50;2.40;;;;;;;2.10;72.23;97901.72;7712363;32;40076;-78
2023/12/23 01:41:35;;;;;;;2.65;2.50;;;;;;;1.94;72.47;97886.62;7720870;32;41091;-78
2023/12/23 01:45:55;;;;;;;2.58;2.47;;;;;;;1.98;72.12;97885.00;7708898;32;37700;-78
2023/12/23 01:50:11;;;;;;;2.50;2.40;;;;;;;1.59;74.02;97885.38;7701229;32;37053;-78
2023/12/23 01:54:28;;;;;;;2.58;2.47;;;;;;;1.75;73.30;97870.12;7711363;32;40079;-78
2023/12/23 01:58:45;;;;;;;2.70;2.60;;;;;;;1.31;75.15;97895.38;7719319;32;40749;-78
2023/12/23 02:03:02;;;;;;;2.60;2.50;;;;;;;1.71;74.37;97907.47;7684908;32;37778;-78
2023/12/23 02:07:19;;;;;;;2.50;2.40;;;;;;;1.57;75.76;97933.97;7684157;32;37861;-78
2023/12/23 02:12:06;;;;;;;2.70;2.60;;;;;;;1.56;76.55;97948.47;7685010;32;40083;-78
2023/12/23 02:16:22;;;;;;;2.70;2.60;;;;;;;1.49;76.64;97945.19;7685002;32;40797;-78
2023/12/23 02:20:39;;;;;;;2.58;2.47;;;;;;;1.34;76.69;97939.69;7691316;32;37588;-78
2023/12/23 02:24:55;;;;;;;2.80;2.60;;;;;;;1.53;76.79;97948.16;7738219;32;37856;-78
2023/12/23 02:29:12;;;;;;;2.60;2.50;;;;;;;1.50;76.37;97942.25;7738294;32;39338;-78
2023/12/23 02:33:28;;;;;;;2.60;2.50;;;;;;;1.05;77.60;97956.94;7736906;32;39949;-77
2023/12/23 02:37:45;;;;;;;2.47;2.37;;;;;;;1.64;75.99;97971.34;7738076;32;38528;-78
2023/12/23 02:42:01;;;;;;;2.80;2.70;;;;;;;2.00;74.51;97939.31;7737948;32;36956;-78
2023/12/23 02:46:18;;;;;;;2.60;2.50;;;;;;;1.34;76.86;97956.63;7749449;32;40230;-77
2023/12/23 02:50:34;;;;;;;2.50;2.40;;;;;;;1.27;77.14;97972.94;7954244;26;40775;-81
2023/12/23 02:54:50;;;;;;;2.70;2.60;;;;;;;1.25;77.55;97990.38;7709557;32;38611;-82
2023/12/23 02:59:07;;;;;;;2.85;2.70;;;;;;;1.18;78.76;97995.16;7711201;32;37768;-82
2023/12/23 03:03:23;;;;;;;2.60;2.50;;;;;;;1.76;76.53;97998.00;7704217;32;39944;-83
2023/12/23 03:07:40;;;;;;;2.72;2.62;;;;;;;1.33;77.77;97997.97;7684821;32;40883;-82
2023/12/23 03:11:56;;;;;;;2.53;2.42;;;;;;;1.48;77.65;97976.63;7683914;32;37813;-82
2023/12/23 03:16:19;;;;;;;2.70;2.60;;;;;;;1.03;79.35;98007.34;7684163;32;37184;-82
2023/12/23 03:20:35;;;;;;;3.00;2.80;;;;;;;0.86;79.92;98001.25;7682823;32;40243;-82
2023/12/23 03:24:51;;;;;;;2.50;2.40;;;;;;;1.19;78.73;97981.47;7683832;32;40672;-82
2023/12/23 03:29:08;;;;;;;2.67;2.58;;;;;;;1.46;78.37;97957.25;7683581;32;37688;-82
2023/12/23 03:33:24;;;;;;;2.70;2.60;;;;;;;1.42;79.19;97974.94;7683685;32;37107;-82
2023/12/23 03:37:40;;;;;;;2.55;2.45;;;;;;;1.06;79.41;97982.69;7682353;32;39447;-82
2023/12/23 03:41:57;;;;;;;2.80;2.70;;;;;;;1.59;77.09;98004.34;7683417;32;40056;-81
2023/12/23 03:46:13;;;;;;;2.80;2.60;;;;;;;1.50;77.23;97977.16;7683318;32;37762;-82
2023/12/23 03:50:30;;;;;;;2.50;2.40;;;;;;;1.12;78.86;97981.69;7707736;32;37628;-82
2023/12/23 03:54:46;;;;;;;2.40;2.30;;;;;;;1.30;77.70;97977.78;7709772;32;39470;-82
2023/12/23 03:59:02;;;;;;;2.75;2.65;;;;;;;1.29;78.02;97961.94;7709604;32;40013;-79
2023/12/23 04:03:19;;;;;;;2.70;2.60;;;;;;;1.38;77.21;97965.78;7709499;32;38521;-82
2023/12/23 04:07:35;;;;;;;2.80;2.70;;;;;;;1.33;77.72;97970.28;7709427;32;37581;-82
2023/12/23 04:11:52;;;;;;;2.60;2.50;;;;;;;1.40;77.50;97944.84;7697798;32;40211;-82
2023/12/23 04:16:08;;;;;;;2.72;2.60;;;;;;;1.08;77.27;97945.66;7684623;32;39917;-81
2023/12/23 04:20:27;;;;;;;2.75;2.60;;;;;;;1.45;76.53;97947.59;7686324;32;37805;-81
2023/12/23 04:24:43;;;;;;;2.80;2.70;;;;;;;1.25;77.15;97942.06;7685318;32;37832;-80
2023/12/23 04:28:59;;;;;;;2.72;2.60;;;;;;;1.14;76.88;97951.91;7686500;32;39057;-79
2023/12/23 04:33:15;;;;;;;2.50;2.40;;;;;;;1.34;76.67;97966.56;7712600;32;39798;-79
2023/12/23 04:37:32;;;;;;;2.60;2.50;;;;;;;1.34;76.38;97980.78;7712898;32;38752;-80
2023/12/23 04:41:48;;;;;;;2.60;2.50;;;;;;;1.36;76.29;97967.91;7712760;32;37823;-81
2023/12/23 04:46:04;;;;;;;2.90;2.75;;;;;;;1.35;76.42;97989.66;7712718;32;39278;-81
2023/12/23 04:50:20;;;;;;;2.80;2.70;;;;;;;1.15;76.81;98001.03;7712280;32;40904;-82
2023/12/23 04:54:37;;;;;;;2.65;2.55;;;;;;;1.06;77.22;98028.31;7712525;32;37530;-81
2023/12/23 04:58:56;;;;;;;2.60;2.50;;;;;;;1.51;76.25;98042.41;7712599;32;36887;-82
2023/12/23 05:03:12;;;;;;;2.72;2.62;;;;;;;1.04;77.17;98053.78;7705075;32;240238;-82
2023/12/23 05:07:29;;;;;;;2.70;2.60;;;;;;;1.08;78.22;98060.25;7712400;32;40900;-82
2023/12/23 05:11:45;;;;;;;2.67;2.58;;;;;;;1.16;77.14;98064.37;7699890;32;38274;-82
2023/12/23 05:16:01;;;;;;;2.70;2.60;;;;;;;0.77;78.77;98086.75;7685641;32;36771;-82
2023/12/23 05:20:18;;;;;;;2.85;2.65;;;;;;;0.94;78.67;98097.41;7684413;32;39457;-83
2023/12/23 05:24:37;;;;;;;3.28;3.08;;;;;;;1.01;79.07;98114.12;7685558;32;40798;-82
2023/12/23 05:28:54;;;;;;;2.80;2.70;;;;;;;0.81;79.41;98122.75;7684136;32;38529;-82
2023/12/23 05:33:10;;;;;;;3.05;2.85;;;;;;;0.92;78.60;98139.78;7685506;32;37078;-82
2023/12/23 05:37:26;;;;;;;3.28;3.03;;;;;;;0.75;79.12;98143.31;7685396;32;40171;-82
2023/12/23 05:41:43;;;;;;;2.80;2.70;;;;;;;0.90;78.90;98147.28;7695272;32;40203;-83
2023/12/23 05:45:59;;;;;;;3.03;2.92;;;;;;;0.94;78.83;98172.53;7711854;32;38655;-83
2023/12/23 05:50:16;;;;;;;2.72;2.62;;;;;;;1.40;77.47;98175.78;7711693;32;37548;-83
2023/12/23 05:54:32;;;;;;;2.90;2.70;;;;;;;1.37;76.11;98160.19;7696848;32;39313;-82
2023/12/23 05:58:48;;;;;;;5.12;2.53;;;;;;;1.09;76.78;98174.63;7685088;32;40032;-82
2023/12/23 06:03:05;;;;;;;2.85;2.60;;;;;;;1.45;75.46;98199.19;7685089;32;38582;-82
2023/12/23 06:07:21;;;;;;;2.60;2.50;;;;;;;1.49;75.59;98219.94;7684971;32;37877;-83
2023/12/23 06:11:37;;;;;;;2.40;2.30;;;;;;;1.42;75.48;98199.72;7685785;32;39030;-82
2023/12/23 06:15:53;;;;;;;2.90;2.70;;;;;;;1.26;76.41;98185.28;7684978;32;39732;-83
2023/12/23 06:20:11;;;;;;;2.70;2.60;;;;;;;1.26;77.08;98174.53;7684843;32;38737;-81
2023/12/23 06:24:27;;;;;;;2.60;2.50;;;;;;;1.33;76.81;98212.78;7684586;32;37070;-84
2023/12/23 06:33:56;;;;;;;;;;;;;;;1.39;77.57;98227.06;7821079;31;188965;-83
2023/12/23 06:38:16;;;;;;;2.70;2.60;;;;;;;1.39;77.57;98227.06;7796331;32;40687;-83
2023/12/23 06:42:33;;;;;;;2.70;2.60;;;;;;;0.89;78.83;98251.09;7784252;32;38635;-83
2023/12/23 06:46:51;;;;;;;2.70;2.60;;;;;;;1.11;76.95;98266.44;7785411;32;37642;-82
2023/12/23 06:51:10;;;;;;;3.30;3.10;;;;;;;1.17;76.41;98283.44;7803911;32;39491;-82
2023/12/23 06:55:26;;;;;;;3.40;3.10;;;;;;;1.00;77.50;98302.25;7812624;32;40704;-81
2023/12/23 06:59:46;;;;;;;3.40;3.10;;;;;;;1.34;76.66;98304.88;7812571;32;37923;-77
2023/12/23 07:04:02;;;;;;;3.78;3.37;;;;;;;1.35;77.52;98312.69;7811183;32;36937;-85
2023/12/23 07:08:18;;;;;;;3.03;2.83;;;;;;;1.71;76.02;98315.84;7812454;32;39936;-83
2023/12/23 07:12:34;;;;;;;2.80;2.70;;;;;;;1.39;76.34;98316.47;7812255;32;39910;-83
2023/12/23 07:16:51;;;;;;;3.10;2.90;;;;;;;1.85;74.13;98343.94;7812069;32;37480;-84
2023/12/23 07:21:07;;;;;;;3.17;2.97;;;;;;;0.96;76.16;98374.38;7812381;32;36823;-83
2023/12/23 07:25:24;;;;;;;3.47;3.25;;;;;;;1.04;76.53;98376.66;7812351;32;39207;-84
2023/12/23 07:29:41;;;;;;;2.92;2.78;;;;;;;1.65;75.62;98381.31;7812386;32;40804;-87
2023/12/23 07:34:02;;;;;;;3.00;2.80;;;;;;;2.35;72.21;98387.00;7811471;32;38594;-86
2023/12/23 07:38:19;;;;;;;3.03;2.83;;;;;;;1.91;73.46;98401.25;7812061;32;36909;-85
2023/12/23 07:42:35;;;;;;;4.80;4.15;;;;;;;2.49;71.10;98417.81;7805793;32;38811;-85
2023/12/23 07:46:51;;;;;;;3.35;2.75;;;;;;;2.09;70.92;98434.28;7793317;32;39819;-86
2023/12/23 07:51:09;;;;;;;5.37;3.40;;;;;;;1.78;71.19;98450.81;7792293;32;38633;-85
2023/12/23 07:55:26;;;;;;;3.80;3.00;;;;;;;2.13;70.19;98468.47;7793431;32;36947;-86
2023/12/23 07:59:42;;;;;;;2.92;2.70;;;;;;;1.87;70.12;98468.13;7793616;32;39777;-87
2023/12/23 08:04:00;;;;;;;3.53;3.12;;;;;;;2.12;69.88;98471.41;7793500;32;40725;-86
2023/12/23 08:08:16;;;;;;;3.70;3.10;;;;;;;1.94;69.55;98481.41;7793449;32;37792;-88
2023/12/23 08:12:33;;;;;;;2.95;2.75;;;;;;;2.09;68.47;98504.16;7792173;32;37818;-86
2023/12/23 08:16:50;;;;;;;3.05;2.80;;;;;;;2.41;66.67;98502.44;7793447;32;39157;-83
2023/12/23 08:21:08;;;;;;;5.53;3.00;;;;;;;2.59;66.07;98512.09;7791942;32;40755;-85
2023/12/23 08:25:24;;;;;;;2.95;2.60;;;;;;;2.99;64.19;98524.38;7793164;32;38627;-86
2023/12/23 08:29:41;;;;;;;3.03;2.67;;;;;;;2.60;65.25;98527.19;7793733;32;36938;-85
2023/12/23 08:33:57;;;;;;;2.97;2.70;;;;;;;3.04;64.59;98530.91;7793175;32;38941;-88
2023/12/23 08:38:14;;;;;;;3.65;2.92;;;;;;;2.94;65.52;98536.97;7793151;32;40970;-84
2023/12/23 08:42:31;;;;;;;3.10;2.80;;;;;;;3.15;65.31;98532.63;7786703;32;37810;-85
2023/12/23 08:46:47;;;;;;;3.92;2.90;;;;;;;2.95;65.23;98549.38;7778782;32;36483;-86
2023/12/23 08:51:04;;;;;;;2.92;2.70;;;;;;;2.98;65.57;98560.47;7772441;32;39253;-86
2023/12/23 08:55:20;;;;;;;2.83;2.62;;;;;;;2.93;65.25;98560.41;7764714;32;40779;-85
2023/12/23 08:59:37;;;;;;;2.97;2.70;;;;;;;3.39;63.95;98566.25;7765683;32;37758;-85
2023/12/23 09:03:53;;;;;;;5.32;3.10;;;;;;;3.51;63.38;98568.00;7765644;32;37019;-85
2023/12/23 09:08:11;;;;;;;3.25;2.95;;;;;;;2.79;65.03;98572.59;7765743;32;38950;-86
2023/12/23 09:12:28;;;;;;;3.60;2.72;;;;;;;4.04;62.28;98565.47;7765726;32;39983;-87
2023/12/23 09:16:44;;;;;;;4.47;3.10;;;;;;;3.45;62.92;98564.44;7765730;32;37839;-87
2023/12/23 09:21:00;;;;;;;5.55;4.05;;;;;;;4.08;61.28;98567.37;7765478;32;37578;-86
2023/12/23 09:25:17;;;;;;;3.58;2.90;;;;;;;4.19;60.20;98579.06;7765500;32;39993;-88
2023/12/23 09:29:33;;;;;;;7.85;3.55;;;;;;;4.02;59.85;98564.88;7765414;32;40018;-90
2023/12/23 09:33:49;;;;;;;2.62;2.42;;;;;;;3.58;61.17;98563.22;7765084;32;37574;-89
2023/12/23 09:38:05;;;;;;;3.03;2.70;;;;;;;3.53;59.04;98565.84;7765347;32;36723;-88
2023/12/23 09:42:22;;;;;;;11.27;3.85;;;;;;;2.87;60.71;98564.09;7765207;32;39974;-89
2023/12/23 09:46:40;;;;;;;5.60;3.20;;;;;;;3.48;59.10;98566.59;7765180;32;39352;-85
2023/12/23 09:50:56;;;;;;;3.17;2.72;;;;;;;3.15;60.59;98564.94;7764693;32;38472;-83
2023/12/23 09:55:16;;;;;;;2.55;2.45;;;;;;;3.43;59.43;98576.53;7764972;32;37766;-87
2023/12/23 09:59:33;;;;;;;5.12;3.97;;;;;;;3.17;60.42;98582.50;7765113;32;39847;-86
2023/12/23 10:03:50;;;;;;;10.77;4.57;;;;;;;3.54;59.97;98594.44;7763300;32;40044;-85
2023/12/23 10:08:07;;;;;;;3.58;2.85;;;;;;;3.48;59.70;98585.47;7764192;32;39457;-86
2023/12/23 10:12:23;;;;;;;3.17;2.62;;;;;;;2.92;60.31;98591.06;7764631;32;36593;-85
2023/12/23 10:16:42;;;;;;;4.93;3.22;;;;;;;3.14;59.06;98579.47;7764645;32;38813;-86
2023/12/23 10:21:03;;;;;;;4.22;2.80;;;;;;;2.95;60.12;98571.75;7762525;32;39920;-85
2023/12/23 10:25:20;;;;;;;4.47;2.97;;;;;;;3.16;58.57;98569.28;7761465;32;38264;-86
2023/12/23 10:29:37;;;;;;;4.53;3.25;;;;;;;2.86;59.82;98572.41;7762101;32;36536;-86
2023/12/23 10:33:59;;;;;;;5.12;3.08;;;;;;;3.18;58.53;98576.03;7760870;32;39613;-86
2023/12/23 10:38:17;;;;;;;7.35;3.17;;;;;;;2.59;60.04;98565.91;7762869;32;39611;-87
2023/12/23 10:42:35;;;;;;;7.70;3.15;;;;;;;2.51;59.94;98560.97;7764063;32;37576;-86
2023/12/23 10:46:52;;;;;;;4.25;2.90;;;;;;;2.76;59.47;98562.34;7763999;32;36501;-85
2023/12/23 10:51:09;;;;;;;4.53;3.62;;;;;;;2.72;58.57;98571.97;7763676;32;39095;-86
2023/12/23 10:55:27;;;;;;;3.22;2.95;;;;;;;2.98;58.80;98555.09;7763723;32;39710;-85
2023/12/23 10:59:44;;;;;;;2.90;2.70;;;;;;;3.13;56.78;98556.31;7762488;32;36917;-86
2023/12/23 11:04:01;;;;;;;7.35;3.00;;;;;;;3.12;56.60;98543.91;7763632;32;36766;-86
2023/12/23 11:08:21;;;;;;;3.45;3.10;;;;;;;3.30;56.26;98535.47;7762239;32;38852;-86
2023/12/23 11:12:38;;;;;;;3.40;2.80;;;;;;;3.20;56.23;98532.69;7762096;32;40552;-85
2023/12/23 11:16:58;;;;;;;4.35;3.03;;;;;;;2.72;57.11;98520.84;7763550;32;37905;-86
2023/12/23 11:21:17;;;;;;;6.90;3.00;;;;;;;2.20;58.07;98520.19;7766993;32;37637;-86
2023/12/23 11:25:38;;;;;;;3.72;2.70;;;;;;;2.51;56.85;98527.88;7766993;32;39633;-87
2023/12/23 11:29:55;;;;;;;3.05;2.80;;;;;;;2.34;57.56;98517.16;7766852;32;40306;-87
2023/12/23 11:34:20;;;;;;;8.93;4.28;;;;;;;2.52;57.32;98522.25;7765527;32;37483;-86
2023/12/23 11:38:53;;;;;;;4.18;2.90;;;;;;;2.93;57.00;98517.34;7766792;32;36814;-86
2023/12/23 11:43:09;;;;;;;2.92;2.72;;;;;;;1.72;62.58;98536.97;7766545;32;38887;-88
2023/12/23 11:47:26;;;;;;;3.30;2.92;;;;;;;1.18;67.96;98534.72;7766516;32;39881;-87
2023/12/23 11:51:44;;;;;;;3.40;3.20;;;;;;;1.16;69.42;98534.97;7765244;32;38680;-87
2023/12/23 11:56:01;;;;;;;4.03;3.42;;;;;;;1.20;70.78;98522.69;7766478;32;37547;-85
2023/12/23 12:00:18;;;;;;;4.30;3.90;;;;;;;1.00;72.45;98504.34;7766374;32;39221;-86
2023/12/23 12:04:35;;;;;;;6.65;3.65;;;;;;;0.90;73.48;98509.53;7767616;32;39981;-86
2023/12/23 12:08:52;;;;;;;5.40;3.40;;;;;;;1.12;73.27;98497.06;7793410;32;38468;-88
2023/12/23 12:13:08;;;;;;;4.37;3.45;;;;;;;0.92;73.36;98507.41;7785464;32;36967;-83
2023/12/23 12:17:25;;;;;;;4.18;3.30;;;;;;;0.75;74.99;98478.66;7792651;32;39868;-85
2023/12/23 12:21:43;;;;;;;3.37;3.17;;;;;;;0.69;75.55;98478.81;7793059;32;40020;-85
2023/12/23 12:26:00;;;;;;;3.95;3.55;;;;;;;1.59;72.51;98462.91;7769171;32;37485;-86
2023/12/23 12:30:16;;;;;;;4.20;3.80;;;;;;;1.11;73.55;98457.84;7769640;32;37624;-86
2023/12/23 12:34:33;;;;;;;6.78;3.78;;;;;;;1.77;72.22;98457.22;7792983;32;40015;-85
2023/12/23 12:38:50;;;;;;;2.97;2.87;;;;;;;1.66;72.63;98445.53;7791700;32;40790;-86
2023/12/23 12:43:06;;;;;;;4.70;3.58;;;;;;;1.44;73.02;98440.09;7764580;32;38624;-84
2023/12/23 12:47:26;;;;;;;3.50;3.20;;;;;;;1.55;73.24;98434.88;7772945;32;37738;-86
2023/12/23 12:51:43;;;;;;;13.35;6.75;;;;;;;1.64;72.95;98420.00;7779265;32;39202;-85
2023/12/23 12:56:10;;;;;;;6.15;4.78;;;;;;;2.06;71.08;98422.94;7774998;32;39672;-87
2023/12/23 13:00:27;;;;;;;11.00;5.05;;;;;;;2.09;70.97;98423.50;7764498;32;38459;-86
2023/12/23 13:04:43;;;;;;;4.30;3.90;;;;;;;2.31;70.03;98423.50;7765690;32;36743;-87
2023/12/23 13:08:59;;;;;;;11.52;5.18;;;;;;;2.16;70.62;98433.03;7785542;32;38795;-86
2023/12/23 13:13:17;;;;;;;4.28;3.72;;;;;;;2.16;70.71;98443.00;7792593;32;39725;-87
2023/12/23 13:17:33;;;;;;;4.97;3.72;;;;;;;1.82;71.77;98443.06;7792668;32;37502;-88
2023/12/23 13:21:50;;;;;;;5.47;4.37;;;;;;;2.11;70.79;98438.34;7792704;32;38132;-86
2023/12/23 13:26:06;;;;;;;9.63;5.03;;;;;;;1.48;72.50;98446.63;7787131;32;40051;-86
2023/12/23 13:30:22;;;;;;;4.70;3.55;;;;;;;1.47;73.23;98438.81;7791215;32;40023;-87
2023/12/23 13:34:39;;;;;;;10.57;5.97;;;;;;;1.61;73.34;98436.59;7792330;32;37818;-86
2023/12/23 13:38:55;;;;;;;22.40;9.60;;;;;;;1.84;72.52;98427.50;7792491;32;36765;-85
2023/12/23 13:43:12;;;;;;;9.32;3.53;;;;;;;2.00;71.79;98423.97;7791230;32;40009;-85
2023/12/23 13:47:28;;;;;;;3.58;3.30;;;;;;;1.90;71.86;98426.53;7792225;32;40100;-86
2023/12/23 13:51:44;;;;;;;11.75;6.45;;;;;;;1.54;73.44;98423.34;7791477;32;37694;-84
2023/12/23 13:56:01;;;;;;;9.27;4.18;;;;;;;1.92;71.91;98418.22;7791570;32;37207;-88
2023/12/23 14:00:18;;;;;;;6.05;3.67;;;;;;;2.00;71.87;98421.28;7766144;32;39344;-89
2023/12/23 14:04:36;;;;;;;6.68;3.78;;;;;;;1.64;73.03;98422.69;7776012;32;40768;-89
2023/12/23 14:08:52;;;;;;;3.17;2.97;;;;;;;1.87;72.69;98438.56;7782802;32;38633;-89
2023/12/23 14:13:09;;;;;;;9.80;5.32;;;;;;;2.24;70.88;98434.47;7791835;32;38553;-90
2023/12/23 14:17:25;;;;;;;5.45;3.60;;;;;;;2.26;70.71;98429.66;7791817;32;39147;-87
2023/12/23 14:21:42;;;;;;;7.32;5.40;;;;;;;2.17;70.47;98436.53;7769281;32;40865;-87
2023/12/23 14:25:58;;;;;;;6.03;4.30;;;;;;;2.33;70.41;98432.13;7764432;32;37867;-88
2023/12/23 14:30:14;;;;;;;11.43;5.32;;;;;;;2.05;71.39;98433.97;7764106;32;36832;-87
2023/12/23 14:34:31;;;;;;;4.30;3.67;;;;;;;1.84;71.64;98435.56;7764193;32;39252;-88
2023/12/23 14:38:47;;;;;;;5.72;4.18;;;;;;;2.18;71.28;98438.97;7764315;32;40839;-87
2023/12/23 14:43:03;;;;;;;31.65;5.68;;;;;;;1.93;70.76;98431.37;7763860;32;38423;-88
2023/12/23 14:47:19;;;;;;;3.58;3.30;;;;;;;1.78;71.90;98439.25;7763859;32;37768;-87
2023/12/23 14:51:36;;;;;;;25.10;7.28;;;;;;;1.55;73.03;98453.69;7763753;32;40046;-91
2023/12/23 14:55:52;;;;;;;4.70;3.12;;;;;;;2.36;70.49;98445.94;7773310;32;40731;-91
2023/12/23 15:00:09;;;;;;;9.60;3.58;;;;;;;1.82;71.95;98441.19;7794381;32;37982;-90
2023/12/23 15:04:26;;;;;;;3.55;3.25;;;;;;;2.05;71.63;98450.09;7770660;32;36987;-89
2023/12/23 15:08:44;;;;;;;43.13;4.90;;;;;;;1.89;72.50;98446.37;7767273;32;40030;-92
2023/12/23 15:13:04;;;;;;;4.90;3.35;;;;;;;2.11;71.55;98449.09;7766985;32;40110;-88
2023/12/23 15:17:20;;;;;;;8.68;3.90;;;;;;;2.28;70.74;98458.97;7766940;32;38552;-87
2023/12/23 15:21:37;;;;;;;75.20;6.90;;;;;;;2.34;70.39;98463.38;7766763;32;37772;-87
2023/12/23 15:25:53;;;;;;;5.97;3.65;;;;;;;2.54;70.04;98446.66;7766711;32;39956;-85
2023/12/23 15:30:10;;;;;;;52.10;5.40;;;;;;;2.35;71.15;98448.88;7765530;32;39727;-85
2023/12/23 15:34:27;;;;;;;63.85;6.45;;;;;;;2.42;70.48;98452.16;7766456;32;37887;-86
2023/12/23 15:38:43;;;;;;;6.97;3.30;;;;;;;2.25;70.75;98447.66;7766839;32;36748;-83
2023/12/23 15:42:59;;;;;;;102.55;9.85;;;;;;;2.48;69.90;98448.47;7778907;32;39393;-85
2023/12/23 15:47:16;;;;;;;79.55;7.70;;;;;;;2.43;70.76;98456.47;7780914;32;40967;-88
2023/12/23 15:51:32;;;;;;;36.65;4.90;;;;;;;2.13;71.43;98446.97;7775768;32;37921;-89
2023/12/23 15:55:48;;;;;;;19.75;3.80;;;;;;;2.37;70.64;98444.84;7773352;32;37776;-85
2023/12/23 16:00:06;;;;;;;4.68;3.22;;;;;;;2.20;70.83;98447.59;7787489;32;39269;-87
2023/12/23 16:04:22;;;;;;;2.78;2.60;;;;;;;2.60;69.86;98451.84;7773023;32;39820;-87
2023/12/23 16:08:38;;;;;;;3.83;2.87;;;;;;;2.44;69.81;98450.03;7793340;32;37690;-88
2023/12/23 16:12:55;;;;;;;2.92;2.72;;;;;;;2.67;69.32;98453.50;7793315;32;37062;-86
2023/12/23 16:17:11;;;;;;;7.00;4.32;;;;;;;3.01;68.04;98452.25;7792456;32;39684;-85
2023/12/23 16:21:27;;;;;;;3.62;3.30;;;;;;;3.05;68.11;98443.66;7792750;32;40536;-86
2023/12/23 16:25:44;;;;;;;3.87;3.42;;;;;;;3.31;67.32;98444.69;7792954;32;39130;-86
2023/12/23 16:30:00;;;;;;;3.62;3.03;;;;;;;3.17;67.36;98436.22;7793094;32;37218;-86
2023/12/23 16:34:16;;;;;;;3.50;3.20;;;;;;;3.45;66.75;98432.41;7792999;32;39125;-87
2023/12/23 16:38:33;;;;;;;3.37;3.08;;;;;;;3.51;66.62;98435.97;7793114;32;40023;-87
2023/12/23 16:42:49;;;;;;;3.20;2.90;;;;;;;3.57;66.29;98430.34;7792969;32;38324;-87
2023/12/23 16:47:06;;;;;;;3.25;2.95;;;;;;;3.38;66.55;98438.03;7792948;32;37003;-85
2023/12/23 16:51:23;;;;;;;3.25;2.95;;;;;;;3.52;66.40;98440.28;7792379;32;39990;-87
2023/12/23 16:55:39;;;;;;;3.75;3.25;;;;;;;3.63;66.05;98439.28;7792616;32;39769;-88
2023/12/23 16:59:55;;;;;;;3.20;2.90;;;;;;;3.65;65.90;98439.81;7792204;32;37855;-86
2023/12/23 17:04:13;;;;;;;4.60;3.03;;;;;;;3.63;65.72;98447.34;7792142;32;36999;-86
2023/12/23 17:08:29;;;;;;;6.15;3.60;;;;;;;3.59;65.62;98440.88;7792452;32;39231;-87
2023/12/23 17:12:46;;;;;;;3.40;3.10;;;;;;;3.50;65.38;98450.50;7791708;32;40583;-87
2023/12/23 17:17:04;;;;;;;4.12;3.53;;;;;;;3.24;66.58;98455.66;7790370;32;37867;-87
2023/12/23 17:21:21;;;;;;;3.08;2.80;;;;;;;3.41;66.04;98460.94;7789241;32;37784;-86
2023/12/23 17:25:37;;;;;;;2.80;2.60;;;;;;;3.77;64.85;98450.41;7792462;32;39858;-86
2023/12/23 17:29:53;;;;;;;66.68;6.72;;;;;;;3.27;65.96;98452.47;7785241;32;40575;-86
2023/12/23 17:34:10;;;;;;;16.75;6.57;;;;;;;2.69;68.08;98464.84;7772807;32;37838;-86
2023/12/23 17:38:27;;;;;;;105.72;10.68;;;;;;;2.97;67.31;98467.28;7790898;32;37808;-86
2023/12/23 17:42:44;;;;;;;227.05;14.80;;;;;;;2.63;68.51;98462.09;7792277;32;39974;-86
2023/12/23 17:47:00;;;;;;;284.80;18.55;;;;;;;2.49;69.40;98457.38;7790554;32;40767;-86
2023/12/23 17:51:17;;;;;;;124.72;12.70;;;;;;;2.76;68.73;98460.06;7774577;32;38677;-85
2023/12/23 17:55:33;;;;;;;83.82;11.70;;;;;;;2.91;67.76;98459.41;7783043;32;37792;-85
2023/12/23 17:59:49;;;;;;;17.70;8.73;;;;;;;2.86;67.71;98444.00;7791992;32;38883;-85
2023/12/23 18:04:06;;;;;;;18.92;9.35;;;;;;;3.14;67.17;98461.81;7791787;32;40621;-87
2023/12/23 18:08:22;;;;;;;17.70;8.77;;;;;;;3.13;66.87;98480.91;7791911;32;37838;-86
2023/12/23 18:12:38;;;;;;;6.57;4.80;;;;;;;3.04;67.40;98471.66;7791758;32;37710;-89
2023/12/23 18:16:55;;;;;;;7.72;4.95;;;;;;;3.24;66.97;98477.22;7791694;32;39332;-88
2023/12/23 18:21:11;;;;;;;9.30;4.85;;;;;;;3.00;67.49;98474.88;7790918;32;39720;-87
2023/12/23 18:25:27;;;;;;;6.95;4.85;;;;;;;3.23;66.70;98491.78;7791576;32;37599;-89
2023/12/23 18:29:44;;;;;;;26.65;8.27;;;;;;;3.28;66.77;98489.12;7791197;32;37025;-88
2023/12/23 18:34:00;;;;;;;9.93;6.40;;;;;;;3.15;66.95;98489.53;7791444;32;39227;-88
2023/12/23 18:38:17;;;;;;;10.85;5.93;;;;;;;2.95;67.49;98480.19;7790985;32;40888;-89
2023/12/23 18:42:33;;;;;;;14.35;7.10;;;;;;;3.09;66.80;98485.19;7791074;32;37995;-89
2023/12/23 18:46:49;;;;;;;7.47;5.25;;;;;;;3.31;66.36;98499.41;7791149;32;36670;-89
2023/12/23 18:51:06;;;;;;;13.88;7.70;;;;;;;3.29;66.35;98514.16;7790185;32;39225;-87
2023/12/23 18:55:22;;;;;;;14.07;8.05;;;;;;;3.44;65.88;98513.50;7788251;32;40762;-87
2023/12/23 18:59:38;;;;;;;13.62;7.55;;;;;;;3.38;66.18;98521.53;7790150;32;39326;-87
2023/12/23 19:03:55;;;;;;;14.90;7.65;;;;;;;3.15;66.57;98532.63;7790560;32;37844;-87
2023/12/23 19:08:11;;;;;;;15.88;7.40;;;;;;;3.43;65.99;98538.81;7790174;32;38885;-88
2023/12/23 19:12:31;;;;;;;8.13;5.43;;;;;;;3.24;66.33;98543.75;7790334;32;39790;-90
2023/12/23 19:16:47;;;;;;;10.88;6.28;;;;;;;3.34;66.40;98551.94;7790063;32;38722;-89
2023/12/23 19:21:03;;;;;;;10.32;5.53;;;;;;;3.31;66.27;98564.03;7788700;32;36555;-88
2023/12/23 19:25:20;;;;;;;10.27;6.20;;;;;;;3.17;67.15;98570.88;7789851;32;39228;-88
2023/12/23 19:29:41;;;;;;;8.43;5.70;;;;;;;2.97;67.63;98583.06;7789891;32;40760;-89
2023/12/23 19:33:57;;;;;;;15.70;8.48;;;;;;;3.06;67.76;98588.00;7789646;32;38521;-88
2023/12/23 19:38:16;;;;;;;12.32;7.53;;;;;;;3.00;67.49;98590.66;7790390;32;37816;-87
2023/12/23 19:42:32;;;;;;;8.35;5.57;;;;;;;3.06;67.71;98604.16;7793499;32;38163;-90
2023/12/23 19:46:49;;;;;;;9.45;5.97;;;;;;;2.87;67.66;98606.37;7793690;32;40034;-88
2023/12/23 19:51:06;;;;;;;9.07;5.62;;;;;;;2.46;69.92;98617.38;7793611;32;38387;-86
2023/12/23 19:55:22;;;;;;;8.98;6.22;;;;;;;2.72;69.42;98613.16;7792254;32;36979;-87
2023/12/23 19:59:39;;;;;;;9.30;5.55;;;;;;;2.47;69.95;98640.53;7787432;32;39317;-86
2023/12/23 20:03:57;;;;;;;11.15;7.35;;;;;;;2.85;69.01;98636.22;7792716;32;39591;-86
2023/12/23 20:08:14;;;;;;;10.48;6.10;;;;;;;2.85;69.06;98657.75;7792455;32;36921;-86
2023/12/23 20:12:32;;;;;;;11.27;7.75;;;;;;;2.97;68.17;98645.00;7790888;32;36971;-88
2023/12/23 20:16:48;;;;;;;11.95;8.00;;;;;;;3.20;67.48;98664.66;7764907;32;37802;-85
2023/12/23 20:21:05;;;;;;;11.55;6.93;;;;;;;3.12;67.69;98665.09;7764991;32;40897;-85
2023/12/23 20:25:23;;;;;;;11.02;6.78;;;;;;;3.14;67.52;98663.78;7779089;32;39672;-85